CW3467 Sant Marti de Canals ES current weather conditions

sailwx.info

Wind from 219 at 2 knots gusting 6

Air temperature 31.1° C
Dewpoint 18.1° C

Last reported at 2015-Aug-04 14:43 UTC.
Time now 2015-Aug-04 15:53 UTC

Location: N 42°14' E 000°59'.
View on Google Maps.

See reports from other nearby stations

  
Tides and Currents Weather Stations Pressure Air Temp Water Temp Dewpoint Dewpoint Depression Visibility Wind Speed Wind Dir Waves Ship Positions
date/time (UTC)wind fromknots sea level pressurealtimeterstation pressurevisibilityair tempwater tempwave heightnotes
2015-Aug-04 14:43 219 2 gusting 6 31.1
2015-Aug-04 14:28 224 1 gusting 6 31.1
2015-Aug-04 14:13 228 3 gusting 6 31.1
2015-Aug-04 13:58 225 2 gusting 5 31.1
2015-Aug-04 13:43 238 0 gusting 6 31.1
2015-Aug-04 13:28 240 2 gusting 6 31.1
2015-Aug-04 13:13 232 2 gusting 5 31.1
2015-Aug-04 12:58 271 1 gusting 5 31.1
2015-Aug-04 12:43 219 0 gusting 4 30.6
2015-Aug-04 12:27 226 0 gusting 3 31.1
2015-Aug-04 12:12 224 0 gusting 4 30.6
2015-Aug-04 11:57 252 2 gusting 6 29.4
2015-Aug-04 11:42 268 0 gusting 5 28.9
2015-Aug-04 11:27 236 1 gusting 3 29.4
2015-Aug-04 11:12 255 0 gusting 3 29.4
2015-Aug-04 10:57 012 28.3
2015-Aug-04 10:42 270 27.8
2015-Aug-04 10:27 271 27.8
2015-Aug-04 10:12 226 27.8
2015-Aug-04 09:57 253 26.7
2015-Aug-04 09:42 323 26.7
2015-Aug-04 09:27 285 25.6
2015-Aug-04 09:12 283 24.4
2015-Aug-04 08:58 278 0 gusting 3 23.9
2015-Aug-04 08:42 311 23.9
2015-Aug-04 08:27 190 2 gusting 5 23.3
2015-Aug-04 08:12 226 22.8
2015-Aug-04 07:57 127 22.2
2015-Aug-04 07:42 289 22.2
2015-Aug-04 07:27 214 21.7
2015-Aug-04 07:12 284 20.6
2015-Aug-04 06:57 150 20.0
2015-Aug-04 06:42 148 20.0
2015-Aug-04 06:27 243 18.9
2015-Aug-04 06:12 300 18.9
2015-Aug-04 05:57 291 18.9
2015-Aug-04 05:42 291 18.3
2015-Aug-04 05:27 104 0 gusting 3 18.3
2015-Aug-04 05:12 132 1 gusting 3 18.3
2015-Aug-04 04:57 139 2 gusting 3 18.3
2015-Aug-04 04:42 149 0 gusting 4 18.9
2015-Aug-04 04:27 107 18.9
2015-Aug-04 04:12 006 18.9
2015-Aug-04 03:57 198 18.9
2015-Aug-04 03:42 134 18.9
2015-Aug-04 03:27 046 18.9
2015-Aug-04 03:12 044 18.9
2015-Aug-04 02:57 218 0 gusting 8 19.4
2015-Aug-04 02:42 120 2 gusting 5 20.0
2015-Aug-04 02:27 048 0 gusting 2 19.4
2015-Aug-04 02:12 354 0 gusting 7 19.4
2015-Aug-04 01:56 042 2 gusting 7 20.0
2015-Aug-04 01:41 108 1 gusting 6 19.4
2015-Aug-04 01:26 342 4 gusting 8 19.4
2015-Aug-04 01:11 334 1 gusting 12 19.4
2015-Aug-04 00:56 064 8 gusting 17 19.4
2015-Aug-04 00:41 074 6 gusting 12 20.0
2015-Aug-04 00:26 081 2 gusting 6 20.0
2015-Aug-04 00:11 011 2 gusting 6 20.6
2015-Aug-03 23:56 228 5 gusting 10 23.3
2015-Aug-03 23:41 271 0 gusting 7 25.0
2015-Aug-03 23:26 006 1 gusting 6 25.0
2015-Aug-03 23:11 108 23.9
2015-Aug-03 22:56 257 23.3
2015-Aug-03 22:41 326 1 gusting 4 23.9
2015-Aug-03 22:26 153 2 gusting 6 24.4
2015-Aug-03 22:11 142 6 gusting 9 24.4
2015-Aug-03 21:56 105 25.0
2015-Aug-03 21:41 342 1 gusting 7 25.6
2015-Aug-03 21:26 032 2 gusting 8 26.7
2015-Aug-03 21:11 023 27.2
2015-Aug-03 20:56 053 6 gusting 13 26.7
2015-Aug-03 20:41 082 6 gusting 13 27.2
2015-Aug-03 20:26 085 6 gusting 11 26.1
2015-Aug-03 20:11 005 0 gusting 5 26.7
2015-Aug-03 19:56 328 2 gusting 10 27.2
2015-Aug-03 19:41 034 4 gusting 7 27.2
2015-Aug-03 19:26 071 4 gusting 7 27.2
2015-Aug-03 19:11 355 2 gusting 8 27.8
2015-Aug-03 18:56 049 5 gusting 10 28.3
2015-Aug-03 18:41 046 4 gusting 7 28.9
2015-Aug-03 18:26 054 0 gusting 6 28.3
2015-Aug-03 18:11 010 2 gusting 7 28.9
2015-Aug-03 17:56 297 5 gusting 13 30.0
2015-Aug-03 17:41 243 3 gusting 8 30.0
2015-Aug-03 17:26 193 1 gusting 5 30.6
2015-Aug-03 17:11 233 0 gusting 4 31.1
2015-Aug-03 16:56 159 0 gusting 4 31.7
2015-Aug-03 16:41 229 1 gusting 5 31.7
2015-Aug-03 16:26 208 3 gusting 8 32.2
2015-Aug-03 16:11 229 4 gusting 9 32.8
2015-Aug-03 15:56 239 3 gusting 6 33.9
2015-Aug-03 15:41 236 0 gusting 4 34.4
2015-Aug-03 15:26 237 0 gusting 4 35.6
2015-Aug-03 15:11 212 0 gusting 2 35.6
2015-Aug-03 14:56 205 0 gusting 2 35.0
2015-Aug-03 14:41 278 0 gusting 4 35.0
2015-Aug-03 14:25 259 1 gusting 4 35.0
2015-Aug-03 14:10 246 1 gusting 4 35.0
2015-Aug-03 13:55 257 34.4
2015-Aug-03 13:40 262 35.0
2015-Aug-03 13:25 122 0 gusting 3 34.4
2015-Aug-03 13:10 207 33.9
2015-Aug-03 12:55 226 0 gusting 3 33.9
2015-Aug-03 12:40 243 33.3
2015-Aug-03 12:25 200 33.3
2015-Aug-03 12:10 221 0 gusting 2 32.8
2015-Aug-03 11:55 277 32.2
2015-Aug-03 11:40 180 31.7
2015-Aug-03 11:25 238 31.1
2015-Aug-03 11:10 207 30.6
2015-Aug-03 10:55 218 30.0
2015-Aug-03 10:40 300 28.3
2015-Aug-03 10:25 259 28.9
2015-Aug-03 10:10 250 0 gusting 2 28.3
2015-Aug-03 09:55 222 27.2
2015-Aug-03 09:40 266 26.7
2015-Aug-03 09:25 128 0 gusting 3 26.1
2015-Aug-03 09:10 212 0 gusting 2 25.6
2015-Aug-03 08:54 252 0 gusting 3 25.0
2015-Aug-03 08:39 242 24.4
2015-Aug-03 08:24 145 0 gusting 2 23.9
2015-Aug-03 08:09 139 0 gusting 3 23.9
2015-Aug-03 07:54 141 23.3
2015-Aug-03 07:39 217 0 gusting 2 22.8
2015-Aug-03 07:24 229 0 gusting 2 21.7
2015-Aug-03 07:09 186 0 gusting 1 21.1
2015-Aug-03 06:54 187 20.0
2015-Aug-03 06:39 153 1 gusting 3 18.9
2015-Aug-03 06:24 207 0 gusting 2 18.9
2015-Aug-03 06:09 198 1 gusting 3 18.3
2015-Aug-03 05:54 110 17.8
2015-Aug-03 05:39 212 0 gusting 4 18.3
2015-Aug-03 05:24 128 2 gusting 3 18.3
2015-Aug-03 05:09 136 1 gusting 3 17.8
2015-Aug-03 04:54 141 0 gusting 3 18.3
2015-Aug-03 04:39 123 1 gusting 2 18.3
2015-Aug-03 04:24 120 1 gusting 2 18.3
2015-Aug-03 04:09 077 18.3
2015-Aug-03 03:54 111 18.9
2015-Aug-03 03:39 125 0 gusting 2 18.3
2015-Aug-03 03:24 120 18.3
2015-Aug-03 03:09 104 0 gusting 2 18.9
2015-Aug-03 02:54 116 0 gusting 2 18.9
2015-Aug-03 02:39 116 18.9
2015-Aug-03 02:24 111 18.9
2015-Aug-03 02:10 110 19.4
2015-Aug-03 01:54 110 19.4
2015-Aug-03 01:39 118 19.4
2015-Aug-03 01:24 117 19.4
2015-Aug-03 01:09 167 19.4
2015-Aug-03 00:54 152 0 gusting 1 20.0
2015-Aug-03 00:39 148 20.0
2015-Aug-03 00:23 131 20.6
2015-Aug-03 00:08 103 1 gusting 1 20.6
2015-Aug-02 23:53 103 20.6
2015-Aug-02 23:38 094 20.6
2015-Aug-02 23:23 117 21.1
2015-Aug-02 23:08 117 21.1
2015-Aug-02 22:53 148 21.7
2015-Aug-02 22:38 128 22.2
2015-Aug-02 22:23 108 0 gusting 2 22.2
2015-Aug-02 22:08 101 1 gusting 2 22.2
2015-Aug-02 21:53 145 1 gusting 3 22.8
2015-Aug-02 21:38 108 1 gusting 3 22.8
2015-Aug-02 21:23 135 2 gusting 3 22.8
2015-Aug-02 21:08 335 23.9
2015-Aug-02 20:53 043 0 gusting 2 24.4
2015-Aug-02 20:38 028 0 gusting 1 24.4
2015-Aug-02 20:23 019 0 gusting 1 24.4
2015-Aug-02 20:08 039 0 gusting 1 25.0
2015-Aug-02 19:53 032 25.6
2015-Aug-02 19:38 266 26.1
2015-Aug-02 19:23 279 26.7
2015-Aug-02 19:08 111 27.2
2015-Aug-02 18:53 132 1 gusting 4 28.3
2015-Aug-02 18:38 163 2 gusting 5 28.9
2015-Aug-02 18:23 161 2 gusting 4 29.4
2015-Aug-02 18:08 210 2 gusting 6 29.4
2015-Aug-02 17:53 213 2 gusting 6 30.0
2015-Aug-02 17:38 240 2 gusting 5 30.0
2015-Aug-02 17:23 156 2 gusting 6 30.0
2015-Aug-02 17:08 195 4 gusting 7 30.0
2015-Aug-02 16:53 263 2 gusting 7 30.0
2015-Aug-02 16:38 156 5 gusting 9 30.0
2015-Aug-02 16:23 041 2 gusting 7 30.0
2015-Aug-02 16:08 225 4 gusting 8 30.0
2015-Aug-02 15:53 184 2 gusting 7 30.6
2015-Aug-02 15:38 214 4 gusting 8 30.0
2015-Aug-02 15:24 131 6 gusting 11 30.0
2015-Aug-02 15:08 173 6 gusting 11 30.0